Divnoe, Russia
Current Conditions -  °F | °C
As of 11:30 AM on Sunday 23 Nov 2014 (Local Time) from URWI Reporting Station
Clear Clear  
Wind Chill: 13°   Ceiling: Unl
Heat Index: 23°   Visibility: 6mi
Dew Point: 16°   Wind: 9mph
Humidity: 74%   Direction: 330°NNW
Pressure: 30.21"   Gusts: NA
Location:  45.92°N, 43.35°E
Report Text: URWI 230830Z 33004MPS CAVOK M05/M09 Q1023 NOSIG
Loading
Personal Weather Stations






























Interactive Weather Map New forecast layout! Learn more

10-Day Weather Forecast

Advertisements
Track Severe Weather on mobile